createdAt,value
2018-12-01T00:02:14.922Z,3.80
2018-12-01T00:04:42.527Z,3.90
2018-12-01T00:07:10.778Z,3.70
2018-12-01T00:09:38.234Z,3.80
2018-12-01T00:12:05.840Z,3.80
2018-12-01T00:14:33.450Z,3.90
2018-12-01T00:17:00.998Z,3.90
2018-12-01T00:19:28.459Z,3.90
2018-12-01T00:21:55.880Z,3.90
2018-12-01T00:24:23.418Z,3.90
2018-12-01T00:26:50.844Z,3.90
2018-12-01T00:29:18.252Z,3.80
2018-12-01T00:31:45.790Z,3.90
2018-12-01T00:34:13.199Z,3.90
2018-12-01T00:36:40.625Z,3.90
2018-12-01T00:39:08.086Z,3.90
2018-12-01T00:41:35.531Z,4.00
2018-12-01T00:44:02.949Z,3.80
2018-12-01T00:46:30.836Z,3.90
2018-12-01T00:48:58.245Z,3.80
2018-12-01T00:51:25.793Z,3.70
2018-12-01T00:53:53.226Z,3.80
2018-12-01T00:56:20.689Z,3.90
2018-12-01T00:58:48.105Z,3.70
2018-12-01T01:01:15.943Z,3.90
2018-12-01T01:03:43.504Z,3.80
2018-12-01T01:06:11.162Z,3.70
2018-12-01T01:08:38.644Z,3.80
2018-12-01T01:11:06.282Z,3.70
2018-12-01T01:13:33.765Z,3.70
2018-12-01T01:16:01.301Z,3.70
2018-12-01T01:18:28.725Z,3.70
2018-12-01T01:20:56.301Z,3.60
2018-12-01T01:23:23.976Z,3.50
2018-12-01T01:25:51.728Z,3.60
2018-12-01T01:28:19.357Z,3.70
2018-12-01T01:30:47.165Z,3.90
2018-12-01T01:33:28.506Z,3.70
2018-12-01T01:35:56.024Z,3.70
2018-12-01T01:38:23.521Z,3.70
2018-12-01T01:40:56.991Z,3.80
2018-12-01T01:43:24.424Z,3.90
2018-12-01T01:45:51.996Z,4.00
2018-12-01T01:48:19.439Z,3.90
2018-12-01T01:50:46.880Z,3.90
2018-12-01T01:53:14.380Z,3.90
2018-12-01T01:55:41.886Z,4.00
2018-12-01T01:58:09.324Z,4.10
2018-12-01T02:00:36.766Z,4.10
2018-12-01T02:03:04.313Z,4.10
2018-12-01T02:05:43.382Z,4.00
2018-12-01T02:08:10.804Z,3.90
2018-12-01T02:10:38.225Z,3.90
2018-12-01T02:13:05.651Z,3.90
2018-12-01T02:15:33.053Z,3.90
2018-12-01T02:18:00.494Z,3.80
2018-12-01T02:20:27.894Z,3.70
2018-12-01T02:22:55.348Z,3.80
2018-12-01T02:25:22.882Z,3.90
2018-12-01T02:27:50.424Z,3.80
2018-12-01T02:30:18.961Z,3.80
2018-12-01T02:32:46.776Z,3.70
2018-12-01T02:35:21.573Z,3.70
2018-12-01T02:37:49.035Z,3.60
2018-12-01T02:40:16.457Z,3.60
2018-12-01T02:42:44.020Z,3.60
2018-12-01T02:45:22.842Z,3.50
2018-12-01T02:47:50.276Z,3.50
2018-12-01T02:50:22.739Z,3.40
2018-12-01T02:52:50.317Z,3.60
2018-12-01T02:55:17.740Z,3.50
2018-12-01T02:57:45.322Z,3.40
2018-12-01T03:00:13.064Z,3.50
2018-12-01T03:02:40.496Z,3.40
2018-12-01T03:05:08.993Z,3.30
2018-12-01T03:07:36.445Z,3.40
2018-12-01T03:10:06.072Z,3.30
2018-12-01T03:12:33.493Z,3.30
2018-12-01T03:15:00.881Z,3.30
2018-12-01T03:17:28.314Z,3.20
2018-12-01T03:19:55.783Z,3.10
2018-12-01T03:22:23.197Z,3.20
2018-12-01T03:24:50.605Z,3.20
2018-12-01T03:27:18.070Z,3.00
2018-12-01T03:29:45.498Z,2.90
2018-12-01T03:32:13.003Z,3.00
2018-12-01T03:34:40.426Z,3.10
2018-12-01T03:37:08.760Z,3.00
2018-12-01T03:39:36.177Z,3.00
2018-12-01T03:42:03.649Z,2.90
2018-12-01T03:44:31.129Z,3.00
2018-12-01T03:46:58.593Z,2.90
2018-12-01T03:49:25.992Z,2.90
2018-12-01T03:51:53.429Z,3.00
2018-12-01T03:54:20.868Z,3.00
2018-12-01T03:56:48.289Z,3.00
2018-12-01T03:59:15.742Z,3.00
2018-12-01T04:01:43.220Z,3.10
2018-12-01T04:04:10.645Z,3.00
2018-12-01T04:06:38.157Z,2.90
2018-12-01T04:09:13.136Z,2.80
2018-12-01T04:11:41.692Z,2.80
2018-12-01T04:14:09.394Z,2.90
2018-12-01T04:16:36.829Z,2.70
2018-12-01T04:19:04.718Z,2.80
2018-12-01T04:21:32.131Z,2.90
2018-12-01T04:23:59.581Z,2.90
2018-12-01T04:26:26.985Z,2.70
2018-12-01T04:28:54.429Z,2.70
2018-12-01T04:31:21.882Z,2.80
2018-12-01T04:33:49.338Z,2.80
2018-12-01T04:36:16.740Z,2.90
2018-12-01T04:38:44.186Z,2.80
2018-12-01T04:41:11.601Z,2.70
2018-12-01T04:43:39.029Z,2.80
2018-12-01T04:46:06.454Z,2.70
2018-12-01T04:48:33.960Z,2.70
2018-12-01T04:51:01.364Z,2.70
2018-12-01T04:53:28.809Z,2.70
2018-12-01T04:55:56.211Z,2.80
2018-12-01T04:58:23.644Z,2.60
2018-12-01T05:00:51.047Z,2.80
2018-12-01T05:03:19.327Z,2.90
2018-12-01T05:05:46.717Z,2.80
2018-12-01T05:08:14.134Z,2.90
2018-12-01T05:10:41.525Z,2.90
2018-12-01T05:13:09.017Z,2.90
2018-12-01T05:15:36.417Z,2.80
2018-12-01T05:18:03.857Z,2.90
2018-12-01T05:20:31.259Z,3.00
2018-12-01T05:22:58.701Z,3.10
2018-12-01T05:25:26.254Z,3.00
2018-12-01T05:27:53.698Z,3.00
2018-12-01T05:30:21.129Z,3.00
2018-12-01T05:32:48.594Z,3.00
2018-12-01T05:35:18.354Z,2.90
2018-12-01T05:37:45.781Z,2.90
2018-12-01T05:40:13.430Z,3.00
2018-12-01T05:42:40.832Z,3.00
2018-12-01T05:45:11.417Z,3.10
2018-12-01T05:47:38.833Z,3.20
2018-12-01T05:50:07.300Z,3.30
2018-12-01T05:52:34.742Z,3.20
2018-12-01T05:55:02.408Z,3.20
2018-12-01T05:57:29.890Z,3.30
2018-12-01T05:59:57.321Z,3.30
2018-12-01T06:02:24.735Z,3.30
2018-12-01T06:04:52.154Z,3.30
2018-12-01T06:07:19.564Z,3.20
2018-12-01T06:09:46.996Z,3.20
2018-12-01T06:12:14.545Z,3.30
2018-12-01T06:14:42.026Z,3.30
2018-12-01T06:17:09.403Z,3.40
2018-12-01T06:19:36.837Z,3.50
2018-12-01T06:22:04.605Z,3.70
2018-12-01T06:24:32.028Z,3.70
2018-12-01T06:26:59.465Z,3.70
2018-12-01T06:29:26.916Z,3.70
2018-12-01T06:31:54.316Z,3.80
2018-12-01T06:34:21.743Z,3.80
2018-12-01T06:36:49.174Z,3.80
2018-12-01T06:39:16.604Z,3.90
2018-12-01T06:41:44.025Z,3.90
2018-12-01T06:44:11.467Z,4.00
2018-12-01T06:46:38.859Z,4.00
2018-12-01T06:49:06.318Z,3.90
2018-12-01T06:51:33.720Z,4.10
2018-12-01T06:54:01.235Z,4.10
2018-12-01T06:56:28.637Z,4.10
2018-12-01T06:58:56.053Z,4.20
2018-12-01T07:01:23.550Z,4.10
2018-12-01T07:03:50.982Z,4.30
2018-12-01T07:06:18.409Z,4.30
2018-12-01T07:08:45.828Z,4.30
2018-12-01T07:11:13.256Z,4.40
2018-12-01T07:13:40.703Z,4.50
2018-12-01T07:16:08.133Z,4.50
2018-12-01T07:18:46.980Z,4.50
2018-12-01T07:21:14.366Z,4.60
2018-12-01T07:23:41.802Z,4.60
2018-12-01T07:26:09.316Z,4.70
2018-12-01T07:28:36.728Z,4.70
2018-12-01T07:31:04.566Z,4.70
2018-12-01T07:33:32.057Z,4.60
2018-12-01T07:35:59.491Z,4.60
2018-12-01T07:38:26.966Z,4.60
2018-12-01T07:40:54.424Z,4.80
2018-12-01T07:43:21.848Z,4.80
2018-12-01T07:45:49.289Z,4.80
2018-12-01T07:48:16.665Z,4.90
2018-12-01T07:50:44.189Z,5.10
2018-12-01T07:53:11.632Z,5.10
2018-12-01T07:55:39.118Z,5.20
2018-12-01T07:58:06.510Z,5.30
2018-12-01T08:00:34.027Z,5.30
2018-12-01T08:03:01.479Z,5.40
2018-12-01T08:05:28.974Z,5.30
2018-12-01T08:07:56.359Z,5.40
2018-12-01T08:10:23.865Z,5.50
2018-12-01T08:12:51.290Z,5.40
2018-12-01T08:15:18.769Z,5.30
2018-12-01T08:17:46.517Z,5.40
2018-12-01T08:20:14.874Z,5.30
2018-12-01T08:22:42.324Z,5.40
2018-12-01T08:25:17.970Z,5.40
2018-12-01T08:27:46.790Z,5.50
2018-12-01T08:30:17.467Z,5.40
2018-12-01T08:32:44.905Z,5.40
2018-12-01T08:35:12.452Z,5.60
2018-12-01T08:37:39.860Z,5.60
2018-12-01T08:40:09.862Z,5.70
2018-12-01T08:42:37.285Z,5.60
2018-12-01T08:45:07.456Z,5.60
2018-12-01T08:47:34.854Z,5.50
2018-12-01T08:50:02.686Z,5.50
2018-12-01T08:52:30.086Z,5.70
2018-12-01T08:54:57.511Z,5.70
2018-12-01T08:57:24.901Z,5.70
2018-12-01T08:59:52.469Z,5.80
2018-12-01T09:02:19.904Z,5.70
2018-12-01T09:04:47.359Z,5.70
2018-12-01T09:07:14.778Z,5.60
2018-12-01T09:09:43.589Z,5.50
2018-12-01T09:12:11.032Z,5.70
2018-12-01T09:14:38.528Z,5.50
2018-12-01T09:17:07.253Z,5.50
2018-12-01T09:19:35.912Z,5.50
2018-12-01T09:22:03.515Z,5.60
2018-12-01T09:24:30.935Z,5.60
2018-12-01T09:26:58.425Z,5.60
2018-12-01T09:29:25.964Z,5.70
2018-12-01T09:31:53.514Z,5.90
2018-12-01T09:34:21.109Z,6.00
2018-12-01T09:36:48.623Z,6.00
2018-12-01T09:39:16.032Z,6.10
2018-12-01T09:41:43.561Z,6.10
2018-12-01T09:44:11.065Z,6.10
2018-12-01T09:46:38.500Z,6.30
2018-12-01T09:49:05.979Z,6.30
2018-12-01T09:51:33.431Z,6.40
2018-12-01T09:54:00.836Z,6.40
2018-12-01T09:56:28.265Z,6.40
2018-12-01T09:58:55.701Z,6.50
2018-12-01T10:01:23.157Z,6.50
2018-12-01T10:03:50.641Z,6.60
2018-12-01T10:06:18.167Z,6.60
2018-12-01T10:08:45.711Z,6.60
2018-12-01T10:11:13.272Z,6.70
2018-12-01T10:13:40.837Z,6.70
2018-12-01T10:16:08.308Z,6.80
2018-12-01T10:18:35.774Z,6.90
2018-12-01T10:21:03.410Z,6.90
2018-12-01T10:23:30.837Z,7.00
2018-12-01T10:25:58.268Z,7.00
2018-12-01T10:28:25.690Z,7.00
2018-12-01T10:30:53.109Z,7.10
2018-12-01T10:33:20.534Z,7.00
2018-12-01T10:35:47.988Z,7.10
2018-12-01T10:38:16.112Z,7.10
2018-12-01T10:40:43.577Z,7.20
2018-12-01T10:43:10.973Z,7.40
2018-12-01T10:45:38.412Z,7.40
2018-12-01T10:48:07.305Z,7.50
2018-12-01T10:50:34.763Z,7.60
2018-12-01T10:53:02.185Z,7.80
2018-12-01T10:55:31.525Z,7.70
2018-12-01T10:58:09.165Z,7.70
2018-12-01T11:00:42.456Z,7.70
2018-12-01T11:03:15.622Z,7.90
2018-12-01T11:05:43.545Z,8.00
2018-12-01T11:08:12.532Z,8.00
2018-12-01T11:10:40.023Z,8.00
2018-12-01T11:13:07.446Z,7.90
2018-12-01T11:15:34.981Z,7.80
2018-12-01T11:18:02.480Z,7.80
2018-12-01T11:20:29.911Z,7.90
2018-12-01T11:22:58.164Z,7.90
2018-12-01T11:25:24.930Z,8.00
2018-12-01T11:27:52.389Z,8.10
2018-12-01T11:30:19.853Z,8.00
2018-12-01T11:32:47.538Z,8.10
2018-12-01T11:35:15.001Z,8.00
2018-12-01T11:37:42.478Z,8.10
2018-12-01T11:40:15.278Z,8.10
2018-12-01T11:42:41.804Z,8.10
2018-12-01T11:45:12.252Z,8.10
2018-12-01T11:47:39.754Z,8.00
2018-12-01T11:50:15.770Z,8.10
2018-12-01T11:52:43.790Z,8.10
2018-12-01T11:55:19.335Z,8.10
2018-12-01T11:57:46.817Z,8.10
2018-12-01T12:00:17.017Z,8.10
2018-12-01T12:02:44.785Z,8.20
2018-12-01T12:05:13.293Z,8.20
2018-12-01T12:07:52.285Z,8.30
2018-12-01T12:10:19.713Z,8.30
2018-12-01T12:12:47.257Z,8.40
2018-12-01T12:15:14.824Z,8.40
2018-12-01T12:17:43.691Z,8.40
2018-12-01T12:20:11.156Z,8.50
2018-12-01T12:22:38.655Z,8.60
2018-12-01T12:25:07.708Z,8.70
2018-12-01T12:27:35.153Z,8.70
2018-12-01T12:30:03.513Z,8.60
2018-12-01T12:32:31.048Z,8.70
2018-12-01T12:34:58.465Z,8.80
2018-12-01T12:37:25.900Z,8.90
2018-12-01T12:39:53.317Z,9.00
2018-12-01T12:42:20.770Z,9.10
2018-12-01T12:44:48.201Z,9.10
2018-12-01T12:47:15.642Z,9.10
2018-12-01T12:49:43.044Z,9.30
2018-12-01T12:52:10.485Z,9.20
2018-12-01T12:54:37.916Z,9.20
2018-12-01T12:57:05.391Z,9.00
2018-12-01T12:59:32.792Z,8.90
2018-12-01T13:02:00.305Z,9.00
2018-12-01T13:04:27.788Z,9.00
2018-12-01T13:06:55.199Z,9.00
2018-12-01T13:09:22.777Z,9.00
2018-12-01T13:11:50.191Z,9.00
2018-12-01T13:14:17.690Z,9.10
2018-12-01T13:16:45.152Z,9.10
2018-12-01T13:19:12.583Z,9.30
2018-12-01T13:21:40.086Z,9.30
2018-12-01T13:24:07.523Z,9.30
2018-12-01T13:26:34.997Z,9.30
2018-12-01T13:29:03.104Z,9.30
2018-12-01T13:31:30.602Z,9.20
2018-12-01T13:33:58.060Z,9.30
2018-12-01T13:36:25.541Z,9.20
2018-12-01T13:38:53.025Z,9.20
2018-12-01T13:41:20.436Z,9.20
2018-12-01T13:43:47.980Z,9.10
2018-12-01T13:46:15.480Z,9.20
2018-12-01T13:48:42.933Z,9.10
2018-12-01T13:51:10.424Z,9.10
2018-12-01T13:53:37.860Z,9.00
2018-12-01T13:56:05.352Z,9.10
2018-12-01T13:58:32.749Z,9.10
2018-12-01T14:01:00.198Z,9.10
2018-12-01T14:03:27.605Z,9.20
2018-12-01T14:05:55.080Z,9.10
2018-12-01T14:08:22.483Z,9.20
2018-12-01T14:10:50.841Z,9.00
2018-12-01T14:13:18.307Z,8.90
2018-12-01T14:15:45.797Z,9.10
2018-12-01T14:18:13.680Z,9.00
2018-12-01T14:20:41.154Z,8.90
2018-12-01T14:23:08.638Z,8.90
2018-12-01T14:25:36.117Z,9.10
2018-12-01T14:28:07.902Z,9.00
2018-12-01T14:30:35.457Z,8.90
2018-12-01T14:33:02.938Z,8.80
2018-12-01T14:35:33.633Z,8.80
2018-12-01T14:38:07.541Z,8.60
2018-12-01T14:40:35.474Z,8.80
2018-12-01T14:43:02.942Z,8.80
2018-12-01T14:45:30.602Z,8.70
2018-12-01T14:47:58.425Z,8.70
2018-12-01T14:50:26.275Z,8.60
2018-12-01T14:52:53.794Z,8.60
2018-12-01T14:55:21.229Z,8.60
2018-12-01T14:57:48.645Z,8.50
2018-12-01T15:00:21.011Z,8.50
2018-12-01T15:02:49.322Z,8.40
2018-12-01T15:05:16.740Z,8.50
2018-12-01T15:07:44.709Z,8.40
2018-12-01T15:10:15.380Z,8.40
2018-12-01T15:12:42.975Z,8.50
2018-12-01T15:15:11.601Z,8.50
2018-12-01T15:17:39.036Z,8.50
2018-12-01T15:20:09.122Z,8.40
2018-12-01T15:22:36.611Z,8.40
2018-12-01T15:25:05.527Z,8.40
2018-12-01T15:27:33.083Z,8.40
2018-12-01T15:30:00.494Z,8.40
2018-12-01T15:32:27.952Z,8.40
2018-12-01T15:34:55.481Z,8.30
2018-12-01T15:37:22.920Z,8.40
2018-12-01T15:39:50.361Z,8.50
2018-12-01T15:42:17.877Z,8.50
2018-12-01T15:44:45.336Z,8.50
2018-12-01T15:47:12.780Z,8.40
2018-12-01T15:49:40.233Z,8.30
2018-12-01T15:52:07.632Z,8.30
2018-12-01T15:54:35.096Z,8.30
2018-12-01T15:57:02.546Z,8.30
2018-12-01T15:59:30.009Z,8.30
2018-12-01T16:01:57.477Z,8.30
2018-12-01T16:04:25.026Z,8.50
2018-12-01T16:06:52.498Z,8.30
2018-12-01T16:09:20.023Z,8.20
2018-12-01T16:11:47.492Z,8.10
2018-12-01T16:14:14.985Z,8.10
2018-12-01T16:16:42.529Z,8.10
2018-12-01T16:19:09.973Z,8.10
2018-12-01T16:21:37.483Z,8.10
2018-12-01T16:24:05.149Z,8.20
2018-12-01T16:26:32.625Z,8.10
2018-12-01T16:29:00.077Z,8.10
2018-12-01T16:31:27.513Z,8.00
2018-12-01T16:33:54.992Z,8.00
2018-12-01T16:36:22.435Z,8.00
2018-12-01T16:38:50.193Z,8.00
2018-12-01T16:41:20.921Z,8.00
2018-12-01T16:43:48.437Z,7.90
2018-12-01T16:46:16.036Z,8.00
2018-12-01T16:48:43.532Z,7.90
2018-12-01T16:51:10.936Z,7.90
2018-12-01T16:53:38.481Z,7.80
2018-12-01T16:56:05.946Z,7.70
2018-12-01T16:58:33.421Z,7.60
2018-12-01T17:01:00.948Z,7.60
2018-12-01T17:03:28.478Z,7.80
2018-12-01T17:05:57.388Z,7.70
2018-12-01T17:08:24.838Z,7.70
2018-12-01T17:10:52.305Z,7.60
2018-12-01T17:13:19.893Z,7.70
2018-12-01T17:15:47.377Z,7.70
2018-12-01T17:18:14.784Z,7.60
2018-12-01T17:20:42.415Z,7.70
2018-12-01T17:23:12.605Z,7.50
2018-12-01T17:25:40.075Z,7.60
2018-12-01T17:28:10.475Z,7.60
2018-12-01T17:30:37.949Z,7.50
2018-12-01T17:33:06.179Z,7.50
2018-12-01T17:35:33.666Z,7.40
2018-12-01T17:38:03.369Z,7.40
2018-12-01T17:40:36.373Z,7.30
2018-12-01T17:43:05.536Z,7.30
2018-12-01T17:45:32.961Z,7.30
2018-12-01T17:48:00.417Z,7.30
2018-12-01T17:50:27.900Z,7.20
2018-12-01T17:52:56.173Z,7.20
2018-12-01T17:55:25.355Z,7.30
2018-12-01T17:57:53.120Z,7.20
2018-12-01T18:00:23.856Z,7.20
2018-12-01T18:02:52.859Z,7.20
2018-12-01T18:05:24.370Z,7.20
2018-12-01T18:07:52.061Z,7.10
2018-12-01T18:10:19.336Z,7.20
2018-12-01T18:12:46.740Z,7.10
2018-12-01T18:15:15.676Z,7.10
2018-12-01T18:17:43.110Z,7.00
2018-12-01T18:20:16.261Z,7.10
2018-12-01T18:22:45.070Z,7.20
2018-12-01T18:25:12.520Z,7.10
2018-12-01T18:27:39.945Z,7.10
2018-12-01T18:30:12.155Z,7.10
2018-12-01T18:32:39.613Z,7.20
2018-12-01T18:35:07.596Z,7.00
2018-12-01T18:37:35.293Z,6.90
2018-12-01T18:40:06.153Z,7.00
2018-12-01T18:42:33.609Z,7.10
2018-12-01T18:45:01.641Z,7.10
2018-12-01T18:47:28.573Z,7.10
2018-12-01T18:49:56.098Z,7.10
2018-12-01T18:52:23.575Z,7.10
2018-12-01T18:54:51.000Z,7.00
2018-12-01T18:57:18.477Z,7.00
2018-12-01T18:59:45.899Z,6.90
2018-12-01T19:02:13.313Z,7.00
2018-12-01T19:04:40.807Z,7.10
2018-12-01T19:07:08.273Z,6.90
2018-12-01T19:09:35.714Z,6.90
2018-12-01T19:12:03.184Z,7.00
2018-12-01T19:14:30.572Z,6.90
2018-12-01T19:16:58.082Z,6.90
2018-12-01T19:19:25.486Z,6.90
2018-12-01T19:21:52.941Z,6.90
2018-12-01T19:24:20.349Z,6.90
2018-12-01T19:26:47.897Z,6.90
2018-12-01T19:29:15.312Z,6.90
2018-12-01T19:31:42.770Z,7.10
2018-12-01T19:34:10.205Z,7.00
2018-12-01T19:36:37.637Z,7.00
2018-12-01T19:39:06.835Z,6.90
2018-12-01T19:41:34.285Z,6.80
2018-12-01T19:44:01.758Z,6.80
2018-12-01T19:46:29.254Z,6.80
2018-12-01T19:48:56.709Z,7.00
2018-12-01T19:51:24.169Z,7.00
2018-12-01T19:53:51.602Z,6.90
2018-12-01T19:56:19.029Z,6.80
2018-12-01T19:58:46.480Z,7.00
2018-12-01T20:01:13.977Z,7.00
2018-12-01T20:03:41.425Z,6.90
2018-12-01T20:06:08.879Z,7.00
2018-12-01T20:08:36.272Z,7.00
2018-12-01T20:11:06.149Z,7.10
2018-12-01T20:13:38.117Z,7.00
2018-12-01T20:16:42.026Z,7.00
2018-12-01T20:19:09.684Z,6.90
2018-12-01T20:21:37.123Z,6.80
2018-12-01T20:24:05.952Z,7.00
2018-12-01T20:26:33.521Z,7.00
2018-12-01T20:29:01.244Z,7.00
2018-12-01T20:31:28.691Z,7.10
2018-12-01T20:33:58.195Z,7.10
2018-12-01T20:36:30.088Z,6.90
2018-12-01T20:39:18.225Z,6.90
2018-12-01T20:41:45.697Z,6.90
2018-12-01T20:44:13.157Z,6.90
2018-12-01T20:46:40.585Z,6.80
2018-12-01T20:49:08.128Z,6.80
2018-12-01T20:51:35.593Z,6.80
2018-12-01T20:54:03.302Z,6.80
2018-12-01T20:56:33.889Z,6.80
2018-12-01T20:59:01.421Z,6.70
2018-12-01T21:01:28.950Z,6.90
2018-12-01T21:03:56.543Z,6.90
2018-12-01T21:06:24.113Z,6.80
2018-12-01T21:08:51.658Z,6.80
2018-12-01T21:11:19.117Z,6.80
2018-12-01T21:13:46.529Z,6.90
2018-12-01T21:16:14.000Z,6.80
2018-12-01T21:18:41.589Z,7.00
2018-12-01T21:21:09.117Z,7.00
2018-12-01T21:23:37.745Z,6.90
2018-12-01T21:26:05.180Z,7.00
2018-12-01T21:28:32.613Z,7.20
2018-12-01T21:31:00.099Z,7.20
2018-12-01T21:33:30.309Z,7.20
2018-12-01T21:35:57.882Z,7.10
2018-12-01T21:38:25.341Z,7.00
2018-12-01T21:40:52.810Z,6.80
2018-12-01T21:43:20.331Z,6.80
2018-12-01T21:45:47.805Z,6.90
2018-12-01T21:48:15.295Z,6.90
2018-12-01T21:50:43.883Z,6.80
2018-12-01T21:53:21.014Z,6.90
2018-12-01T21:55:48.473Z,6.80
2018-12-01T21:58:15.922Z,6.90
2018-12-01T22:00:47.701Z,6.80
2018-12-01T22:03:16.034Z,6.90
2018-12-01T22:05:45.188Z,6.80
2018-12-01T22:08:13.967Z,7.00
2018-12-01T22:10:42.252Z,7.00
2018-12-01T22:13:09.736Z,6.90
2018-12-01T22:15:37.364Z,7.00
2018-12-01T22:18:05.093Z,6.90
2018-12-01T22:20:32.760Z,6.90
2018-12-01T22:23:00.172Z,6.80
2018-12-01T22:25:27.695Z,6.80
2018-12-01T22:27:55.147Z,6.70
2018-12-01T22:30:23.433Z,6.70
2018-12-01T22:32:52.614Z,6.70
2018-12-01T22:35:22.065Z,6.70
2018-12-01T22:37:50.214Z,6.60
2018-12-01T22:40:20.618Z,6.60
2018-12-01T22:42:49.426Z,6.60
2018-12-01T22:45:16.840Z,6.70
2018-12-01T22:47:44.286Z,6.70
2018-12-01T22:50:13.129Z,6.70
2018-12-01T22:52:40.828Z,6.60
2018-12-01T22:55:09.882Z,6.60
2018-12-01T22:57:37.304Z,6.60
2018-12-01T23:00:25.592Z,6.80
2018-12-01T23:02:53.062Z,6.70
2018-12-01T23:05:20.488Z,6.70
2018-12-01T23:07:47.975Z,6.60
2018-12-01T23:10:16.127Z,6.60
2018-12-01T23:12:44.762Z,6.50
2018-12-01T23:15:13.274Z,6.60
2018-12-01T23:17:42.234Z,6.60
2018-12-01T23:20:19.758Z,6.60
2018-12-01T23:22:47.748Z,6.60
2018-12-01T23:25:15.172Z,6.70
2018-12-01T23:27:42.604Z,6.60
2018-12-01T23:30:31.630Z,6.50
2018-12-01T23:33:03.440Z,6.60
2018-12-01T23:35:31.253Z,6.70
2018-12-01T23:37:58.856Z,6.70
2018-12-01T23:40:26.300Z,6.60
2018-12-01T23:42:53.881Z,6.50
2018-12-01T23:45:21.689Z,6.70
2018-12-01T23:47:50.261Z,6.70
2018-12-01T23:50:26.214Z,6.70
2018-12-01T23:53:00.765Z,6.70
2018-12-01T23:55:28.189Z,6.70
2018-12-01T23:57:55.670Z,6.70
